createdAt,value
2023-01-28T00:01:24.771Z,28.3
2023-01-28T00:06:47.763Z,27.2
2023-01-28T00:12:10.180Z,29.4
2023-01-28T00:17:32.633Z,29.4
2023-01-28T00:22:55.473Z,27.4
2023-01-28T00:28:18.448Z,28.5
2023-01-28T00:33:41.831Z,29.6
2023-01-28T00:39:04.421Z,22.4
2023-01-28T00:44:27.149Z,27.9
2023-01-28T00:49:34.143Z,30.8
2023-01-28T00:54:56.570Z,27.9
2023-01-28T01:00:19.888Z,26.8
2023-01-28T01:05:44.459Z,30.2
2023-01-28T01:11:07.602Z,28.5
2023-01-28T01:16:30.786Z,27.2
2023-01-28T01:21:52.979Z,29.5
2023-01-28T01:27:15.339Z,29.4
2023-01-28T01:32:38.037Z,27.4
2023-01-28T01:38:01.571Z,28.6
2023-01-28T01:43:09.088Z,30.9
2023-01-28T01:53:39.347Z,26.8
2023-01-28T01:59:02.183Z,30.2
2023-01-28T02:04:25.311Z,28.4
2023-01-28T02:09:32.178Z,27.2
2023-01-28T02:15:03.929Z,29.7
2023-01-28T02:20:10.533Z,28.9
2023-01-28T02:25:17.738Z,27.4
2023-01-28T02:30:25.290Z,29.2
2023-01-28T02:35:32.904Z,30.5
2023-01-28T02:40:24.201Z,27.7
2023-01-28T02:50:07.402Z,30.3
2023-01-28T02:54:59.046Z,24.9
2023-01-28T03:00:06.052Z,24.8
2023-01-28T03:05:14.195Z,29.4
2023-01-28T03:10:21.663Z,29.5
2023-01-28T03:15:43.586Z,27.5
2023-01-28T03:21:06.104Z,29.2
2023-01-28T03:26:28.290Z,29.9
2023-01-28T03:31:52.440Z,27.7
2023-01-28T03:36:59.548Z,29.2
2023-01-28T03:42:06.338Z,30.4
2023-01-28T03:47:14.175Z,27.8
2023-01-28T03:52:37.239Z,28.6
2023-01-28T03:58:01.777Z,30.8
2023-01-28T04:03:24.084Z,27.9
2023-01-28T04:08:46.516Z,28.2
2023-01-28T04:13:22.082Z,30.6
2023-01-28T04:18:12.962Z,28.3
2023-01-28T04:23:04.812Z,27.1
2023-01-28T04:28:11.729Z,29.8
2023-01-28T04:33:35.150Z,29.3
2023-01-28T04:38:57.332Z,27.6
2023-01-28T04:44:19.845Z,29.4
2023-01-28T04:49:26.731Z,29.6
2023-01-28T04:54:49.352Z,27.6
2023-01-28T05:00:11.786Z,28.9
2023-01-28T05:05:34.823Z,29.1
2023-01-28T05:10:56.535Z,23.5
2023-01-28T05:16:19.493Z,29.1
2023-01-28T05:21:42.416Z,30.1
2023-01-28T05:27:04.656Z,27.6
2023-01-28T05:32:27.376Z,29
2023-01-28T05:37:49.498Z,30.9
2023-01-28T05:43:11.988Z,27.8
2023-01-28T05:48:36.439Z,28.7
2023-01-28T05:53:43.137Z,30.6
2023-01-28T05:59:06.098Z,27.8
2023-01-28T06:04:29.359Z,27.9
2023-01-28T06:09:37.091Z,30.3
2023-01-28T06:14:44.094Z,28.1
2023-01-28T06:20:06.720Z,26.8
2023-01-28T06:25:28.725Z,29.9
2023-01-28T06:30:35.315Z,28.8
2023-01-28T06:35:42.572Z,27.3
2023-01-28T06:40:34.290Z,29.3
2023-01-28T06:45:41.489Z,30.1
2023-01-28T06:51:06.971Z,27.6
2023-01-28T06:56:32.037Z,28.8
2023-01-28T07:01:55.233Z,30.8
2023-01-28T07:07:17.841Z,27.7
2023-01-28T07:12:40.247Z,28.5
2023-01-28T07:18:03.608Z,29.8
2023-01-28T07:23:27.709Z,22.7
2023-01-28T07:28:51.447Z,28.1
2023-01-28T07:34:14.839Z,30.6
2023-01-28T07:39:36.967Z,27.5
2023-01-28T07:44:59.164Z,26.9
2023-01-28T07:50:06.146Z,30.2
2023-01-28T07:55:31.321Z,28.4
2023-01-28T08:00:53.623Z,26.8
2023-01-28T08:06:16.827Z,30
2023-01-28T08:11:39.858Z,28.4
2023-01-28T08:17:02.419Z,26.4
2023-01-28T08:22:24.502Z,29.6
2023-01-28T08:27:47.635Z,29.2
2023-01-28T08:33:11.096Z,26.9
2023-01-28T08:38:33.221Z,29.3
2023-01-28T08:43:55.335Z,29.7
2023-01-28T08:49:20.640Z,27
2023-01-28T08:54:45.824Z,29
2023-01-28T09:00:11.094Z,30.1
2023-01-28T09:05:52.510Z,27.1
2023-01-28T09:11:14.437Z,29
2023-01-28T09:16:37.608Z,30.1
2023-01-28T09:22:01.714Z,22.8
2023-01-28T09:27:09.566Z,28.3
2023-01-28T09:32:34.493Z,30.8
2023-01-28T09:37:57.333Z,27.4
2023-01-28T09:43:19.833Z,28.1
2023-01-28T09:48:42.774Z,30.6
2023-01-28T09:54:06.586Z,27.5
2023-01-28T09:59:29.247Z,28
2023-01-28T10:04:53.461Z,30.6
2023-01-28T10:10:16.402Z,27.6
2023-01-28T10:15:39.180Z,26.9
2023-01-28T10:21:18.776Z,30.3
2023-01-28T10:26:41.194Z,28.2
2023-01-28T10:32:04.150Z,27.2
2023-01-28T10:37:27.135Z,25.4
2023-01-28T10:43:03.738Z,25.1
2023-01-28T10:48:26.063Z,24.3
2023-01-28T10:53:49.067Z,24.7
2023-01-28T10:58:56.536Z,28.9
2023-01-28T11:04:19.771Z,30.7
2023-01-28T11:09:56.838Z,27.9
2023-01-28T11:15:04.547Z,26.4
2023-01-28T11:20:27.552Z,24.9
2023-01-28T11:25:49.760Z,24.6
2023-01-28T11:31:12.607Z,24
2023-01-28T11:36:37.117Z,26.1
2023-01-28T11:42:01.775Z,29.4
2023-01-28T11:47:28.441Z,31
2023-01-28T11:53:21.016Z,27.9
2023-01-28T11:58:43.763Z,26.6
2023-01-28T12:04:07.191Z,25.2
2023-01-28T12:09:30.147Z,24.9
2023-01-28T12:14:52.597Z,24.7
2023-01-28T12:19:59.627Z,24.5
2023-01-28T12:25:22.755Z,24.3
2023-01-28T12:30:46.259Z,24.1
2023-01-28T12:36:09.808Z,23.9
2023-01-28T12:41:32.377Z,23.7
2023-01-28T12:46:54.840Z,23.5
2023-01-28T12:52:18.086Z,23.3
2023-01-28T12:57:40.710Z,23.1
2023-01-28T13:03:04.396Z,22.9
2023-01-28T13:08:27.207Z,22.8
2023-01-28T13:13:49.935Z,22.6
2023-01-28T13:19:23.181Z,22.4
2023-01-28T13:24:52.563Z,22.3
2023-01-28T13:30:17.729Z,22.1
2023-01-28T13:35:40.542Z,22
2023-01-28T13:41:03.146Z,21.9
2023-01-28T13:46:25.846Z,21.8
2023-01-28T13:51:48.660Z,21.8
2023-01-28T13:57:09.829Z,21.7
2023-01-28T14:02:34.630Z,21.6
2023-01-28T14:07:57.772Z,21.5
2023-01-28T14:13:21.645Z,21.4
2023-01-28T14:18:44.867Z,21.4
2023-01-28T14:24:08.085Z,21.3
2023-01-28T14:29:31.038Z,21.3
2023-01-28T14:34:56.859Z,21.2
2023-01-28T14:45:27.384Z,21.1
2023-01-28T14:50:51.668Z,21
2023-01-28T14:56:14.583Z,20.9
2023-01-28T15:01:39.704Z,20.9
2023-01-28T15:07:17.171Z,20.9
2023-01-28T15:12:39.883Z,20.8
2023-01-28T15:18:03.314Z,20.8
2023-01-28T15:23:26.038Z,20.8
2023-01-28T15:28:51.288Z,20.7
2023-01-28T15:34:15.836Z,20.6
2023-01-28T15:39:38.452Z,27.3
2023-01-28T15:45:01.847Z,32.8
2023-01-28T15:50:24.925Z,34.6
2023-01-28T15:55:51.225Z,36.1
2023-01-28T16:01:14.455Z,37.1
2023-01-28T16:06:25.100Z,38.3
2023-01-28T16:11:47.633Z,37.5
2023-01-28T16:16:56.250Z,40.3
2023-01-28T16:22:19.512Z,37.9
2023-01-28T16:27:43.991Z,36.9
2023-01-28T16:33:09.691Z,38
2023-01-28T16:38:12.481Z,38.5
2023-01-28T16:43:09.189Z,40.3
2023-01-28T16:48:39.973Z,38.8
2023-01-28T16:54:05.085Z,38.3
2023-01-28T16:59:48.079Z,39.6
2023-01-28T17:05:12.003Z,39.1
2023-01-28T17:10:35.145Z,37.1
2023-01-28T17:15:59.365Z,37.6
2023-01-28T17:21:08.480Z,38.5
2023-01-28T17:26:16.844Z,36.6
2023-01-28T17:31:42.732Z,36.6
2023-01-28T17:37:06.493Z,36.1
2023-01-28T17:42:31.754Z,36.3
2023-01-28T17:47:57.600Z,39.6
2023-01-28T17:53:27.681Z,39.8
2023-01-28T17:58:56.172Z,39.3
2023-01-28T18:04:29.861Z,37.6
2023-01-28T18:09:56.365Z,37.6
2023-01-28T18:15:24.321Z,38.8
2023-01-28T18:20:51.598Z,37.4
2023-01-28T18:26:30.964Z,38.6
2023-01-28T18:32:07.547Z,40.9
2023-01-28T18:37:22.278Z,39.9
2023-01-28T18:42:36.741Z,38.1
2023-01-28T18:47:56.689Z,40.5
2023-01-28T18:53:47.852Z,40.3
2023-01-28T18:59:27.664Z,38.4
2023-01-28T19:04:52.609Z,38.9
2023-01-28T19:10:14.848Z,37.4
2023-01-28T19:15:53.862Z,37.8
2023-01-28T19:21:30.492Z,39.1
2023-01-28T19:27:17.292Z,37.4
2023-01-28T19:32:56.912Z,39.9
2023-01-28T19:38:32.793Z,37.8
2023-01-28T19:44:06.577Z,39.6
2023-01-28T19:49:27.565Z,38.3
2023-01-28T19:54:46.464Z,37.3
2023-01-28T20:00:05.075Z,37.1
2023-01-28T20:05:36.115Z,37.3
2023-01-28T20:11:17.305Z,36.4
2023-01-28T20:16:56.285Z,36.3
2023-01-28T20:22:36.225Z,35.6
2023-01-28T20:28:11.649Z,34.8
2023-01-28T20:34:03.937Z,33.6
2023-01-28T20:39:40.110Z,32.3
2023-01-28T20:45:00.426Z,31.3
2023-01-28T20:50:36.779Z,30.6
2023-01-28T20:56:07.067Z,29.9
2023-01-28T21:01:40.979Z,29.3
2023-01-28T21:06:45.553Z,28.8
2023-01-28T21:12:16.839Z,28.3
2023-01-28T21:17:27.514Z,27.3
2023-01-28T21:22:19.138Z,25.9
2023-01-28T21:27:27.236Z,25.6
2023-01-28T21:32:34.493Z,26.2
2023-01-28T21:38:02.583Z,30
2023-01-28T21:43:30.016Z,28
2023-01-28T21:48:22.974Z,27.2
2023-01-28T21:53:31.178Z,25.9
2023-01-28T21:58:42.232Z,25.5
2023-01-28T22:03:49.158Z,29.4
2023-01-28T22:08:56.615Z,28.7
2023-01-28T22:13:48.691Z,27.4
2023-01-28T22:18:40.469Z,26.1
2023-01-28T22:23:50.690Z,25.7
2023-01-28T22:28:57.927Z,28.6
2023-01-28T22:34:05.501Z,30.8
2023-01-28T22:38:57.314Z,27.9
2023-01-28T22:44:04.175Z,27.3
2023-01-28T22:49:11.573Z,25.8
2023-01-28T22:54:17.773Z,27.5
2023-01-28T22:59:24.964Z,30.2
2023-01-28T23:04:48.171Z,28.5
2023-01-28T23:09:54.224Z,27.5
2023-01-28T23:15:16.952Z,29.3
2023-01-28T23:20:40.067Z,29.9
2023-01-28T23:30:39.286Z,26.9
2023-01-28T23:35:46.928Z,30.1
2023-01-28T23:40:53.861Z,28.9
2023-01-28T23:46:16.861Z,27.5
2023-01-28T23:51:44.917Z,28.6
2023-01-28T23:57:06.489Z,30.7
